Terminal Aerodrome Forecast
Issued by NWS

Home | Current Version | Previous Version | Text Only | Print | Product List | Glossary On
Versions: 1 2 3 4 5 6 7 8 9 10 11 12 13 14
000
FTUS42 KMHX 291400 AAA
TAFOAJ
TAF AMD
KOAJ 291408Z 2914/3012 03010KT P6SM VCSH BKN020 BKN030 OVC035
      TEMPO 2914/2918 3SM -RA BR OVC007
     FM300500 02004KT 5SM BR OVC003
      AMD LTD TO CLD VIS AND WIND=

USA.gov is the U.S. government's official web portal to all federal, state and local government web resources and services.